Terminal Aerodrome Forecast
Issued by NWS

Home | Current Version | Previous Version | Text Only | Print | Product List | Glossary On
Versions: 1 2 3 4 5 6 7 8 9 10 11 12 13 14 15 16
000
FTAK31 PAJN 300527
TAFAJN
TAF
PAJN 300527Z 3006/3106 VRB04KT P6SM VCSH BKN060 OVC080
      WS020/06030KT
     FM301600 09010KT P6SM -SHRA OVC060 WS020/06030KT
     FM302200 08008KT P6SM VCSH OVC100=

USA.gov is the U.S. government's official web portal to all federal, state and local government web resources and services.